Main page
METAR-TAF:

METAR-TAF

Airports :

Bobo Dioulasso Airport

Bobo-Dioulasso, Burkina Faso

latitude: 11-10N, longitude: 004-19W, elevation: 460 m

Current weather observation

The report was made 23 minutes ago, at 06:00 UTC
Calm wind
Temperature 21°C
Humidity 94%
Pressure 1013 hPa
Visibility 10 km or more
no clouds below 1500 m and no cumulonimbus

METAR: DFOO 230600Z 00000KT CAVOK 21/20 Q1013

Time: 06:23 (06:23 UTC)

Forecast

The report was made 1 hour and 23 minutes ago, at 05:00 UTC
Forecast valid from 23 at 06 UTC to 24 at 06 UTC
Wind 8 kt from variable directions
Visibility 10 km or more
no clouds below 1500 m and no cumulonimbus
Probability 30% :
Temporary
from 23 at 16 UTC to 23 at 24 UTC
Few clouds at a height of 2000 ft
Few clouds at a height of 3300 ft, Cumulonimbus.
thunderstorm

TAF: DFOO 230500Z 2306/2406 VRB08KT CAVOK PROB30 TEMPO 2316/2324 TS FEW020 FEW033CB

Weather observations and forecasts of more than 4000 airports (METAR and TAF reports).

The available stations are represented by yellow and red dots on the map.

Hover mouse over dot to see the name of the station.

Then click to see weather observations and forecasts.

To change the map : click on the green buttons with a black cross to zoom in, on the green button with a dash to zoom out, or on the green arrows for adjacent maps.


METAR-TAF: